Sojana — 9HB5553 — position and weather

sailwx.info

Track history (hours):
 
Tides and Currents Weather Stations Pressure Air Temp Water Temp Dewpoint Dewpoint Depression Visibility Wind Speed Wind Dir Waves Ship Positions

Sojana

Last reported at 2018-Jul-17 05:38 UTC. Time now 2018-Jul-20 22:03 UTC.
Position N 37°54' E 015°48'.

Length 35 m; draft 4.5 m.

Type: Sailing vessel. MMSI: 248519000.

Date/timePositionNaut miles runAvg speedWind from/ knotsBaromVisibWave heightAir tempDewpointWater temp
2018-Jul-17 05:38N 37°54' E 015°48'1 9.1
2018-Jul-17 05:30N 37°54' E 015°47'9 9.3
2018-Jul-17 04:33N 37°59' E 015°38'1 9.5
2018-Jul-17 04:26N 38°00' E 015°37'4 9.6
2018-Jul-17 04:00N 38°04' E 015°36'5 9.3
2018-Jul-17 03:29N 38°09' E 015°35'6 9.1
2018-Jul-17 02:50N 38°15' E 015°37'3 5.5
2018-Jul-17 02:16N 38°18' E 015°37'3 9.8
2018-Jul-17 02:00N 38°19' E 015°34'5 9.5
2018-Jul-17 01:30N 38°20' E 015°28'5 9.8
2018-Jul-17 01:00N 38°20' E 015°22'5 9.5
2018-Jul-17 00:27N 38°20' E 015°15'9 9.2
2018-Jul-16 23:29N 38°20' E 015°04'9 9.1
2018-Jul-16 22:26N 38°21' E 014°52'6 8.6
2018-Jul-16 21:48N 38°21' E 014°45'3 8.1
2018-Jul-16 21:24N 38°21' E 014°41'43 8.5
2018-Jul-16 16:21N 38°26' E 013°46'8 9.8
2018-Jul-16 15:31N 38°26' E 013°35'210.1
2018-Jul-16 15:19N 38°27' E 013°33'4 9.2
2018-Jul-16 14:52N 38°27' E 013°28'3 9.1
2018-Jul-16 14:30N 38°27' E 013°23'610.2
2018-Jul-16 13:57N 38°28' E 013°16'4 9.2
2018-Jul-16 13:30N 38°28' E 013°11'8 7.9
2018-Jul-16 12:27N 38°30' E 013°00'3 7.9
2018-Jul-16 12:00N 38°30' E 012°56'4 8.3
2018-Jul-16 11:30N 38°30' E 012°51'7 7.9
2018-Jul-16 10:40N 38°31' E 012°42'1 8.2
2018-Jul-16 10:31N 38°31' E 012°41'449 9.0
2018-Jul-14 08:41N 39°15' E 003°06'2 8.6
2018-Jul-14 08:28N 39°15' E 003°04'4 9.0
2018-Jul-14 08:01N 39°17' E 002°59'5 9.1
2018-Jul-14 07:30N 39°19' E 002°54'5 9.1
2018-Jul-14 07:00N 39°21' E 002°49'4 8.6
2018-Jul-14 06:29N 39°24' E 002°44'4 9.2
2018-Jul-14 06:00N 39°28' E 002°42'5 9.2
2018-Jul-14 05:30N 39°32' E 002°39'2 3.4
2018-Jul-14 04:55N 39°34' E 002°38'0 0.0
2018-Jul-14 04:28N 39°34' E 002°38'0 0.0
2018-Jul-14 03:58N 39°34' E 002°38'0 0.0
2018-Jul-14 03:28N 39°34' E 002°38'0 0.0
2018-Jul-14 02:58N 39°34' E 002°38'0 0.0
2018-Jul-14 02:28N 39°34' E 002°38'0 0.0
2018-Jul-14 01:58N 39°34' E 002°38'0 0.0
2018-Jul-14 01:28N 39°34' E 002°38'0 0.0
2018-Jul-14 00:58N 39°34' E 002°38'0 0.0
2018-Jul-14 00:28N 39°34' E 002°38'0 0.0
2018-Jul-13 23:58N 39°34' E 002°38'0 0.0
2018-Jul-13 23:28N 39°34' E 002°38'0 0.0
2018-Jul-13 22:58N 39°34' E 002°38'0 0.0
2018-Jul-13 22:28N 39°34' E 002°38'0 0.0
2018-Jul-13 21:58N 39°34' E 002°38'0 0.0
2018-Jul-13 21:28N 39°34' E 002°38'0 0.0
2018-Jul-13 20:58N 39°34' E 002°38'0 0.0
2018-Jul-13 20:28N 39°34' E 002°38'0 0.0
2018-Jul-13 19:58N 39°34' E 002°38'0 0.0
2018-Jul-13 19:28N 39°34' E 002°38'0 0.0
2018-Jul-13 18:58N 39°34' E 002°38'0 0.0
2018-Jul-13 18:28N 39°34' E 002°38'0 0.0
2018-Jul-13 17:58N 39°34' E 002°38'0 0.0
2018-Jul-13 17:28N 39°34' E 002°38'0 0.0
2018-Jul-13 16:58N 39°34' E 002°38'0 0.0
2018-Jul-13 16:28N 39°34' E 002°38'0 0.0
2018-Jul-13 15:58N 39°34' E 002°38'0 0.0
2018-Jul-13 15:28N 39°34' E 002°38'0 0.0
2018-Jul-13 14:55N 39°34' E 002°38'0 0.0
2018-Jul-13 13:58N 39°34' E 002°38'0 0.0
2018-Jul-13 13:28N 39°34' E 002°38'0 0.0
2018-Jul-13 12:58N 39°34' E 002°38'0 0.0
2018-Jul-13 12:28N 39°34' E 002°38'0 0.0
2018-Jul-13 11:58N 39°34' E 002°38'0 0.0
2018-Jul-13 11:28N 39°34' E 002°38'0 0.0
2018-Jul-13 10:52N 39°34' E 002°38'0 0.0
2018-Jul-13 10:28N 39°34' E 002°38'0 0.0
2018-Jul-13 09:58N 39°34' E 002°38'0 0.0
2018-Jul-13 09:28N 39°34' E 002°38'0 0.0
2018-Jul-13 08:58N 39°34' E 002°38'0 0.0
2018-Jul-13 08:28N 39°34' E 002°38'0 0.0
2018-Jul-13 07:58N 39°34' E 002°38'0 0.0
2018-Jul-13 07:28N 39°34' E 002°38'0 0.0
2018-Jul-13 06:58N 39°34' E 002°38'0 0.0
2018-Jul-13 06:25N 39°34' E 002°38'0 0.0
2018-Jul-13 05:58N 39°34' E 002°38'0 0.0
2018-Jul-13 05:25N 39°34' E 002°38'0 0.0
2018-Jul-13 04:55N 39°34' E 002°38'0 0.0
2018-Jul-13 04:28N 39°34' E 002°38'0 0.0
2018-Jul-13 03:58N 39°34' E 002°38'0 0.0
2018-Jul-13 03:28N 39°34' E 002°38'0 0.0
2018-Jul-13 02:58N 39°34' E 002°38'0 0.0
2018-Jul-13 02:28N 39°34' E 002°38'0 0.0
2018-Jul-13 01:58N 39°34' E 002°38'0 0.0
2018-Jul-13 01:28N 39°34' E 002°38'0 0.0
2018-Jul-13 00:58N 39°34' E 002°38'0 0.0
2018-Jul-13 00:28N 39°34' E 002°38'0 0.0
2018-Jul-12 23:58N 39°34' E 002°38'0 0.0
2018-Jul-12 23:28N 39°34' E 002°38'0 0.0
2018-Jul-12 22:58N 39°34' E 002°38'0 0.0
2018-Jul-12 22:28N 39°34' E 002°38'0 0.0
2018-Jul-12 21:58N 39°34' E 002°38'0 0.0
2018-Jul-12 21:28N 39°34' E 002°38'0 0.0
2018-Jul-12 20:58N 39°34' E 002°38'0 0.0
2018-Jul-12 20:28N 39°34' E 002°38'0 0.0
2018-Jul-12 19:58N 39°34' E 002°38'0 0.0
2018-Jul-12 19:28N 39°34' E 002°38'0 0.0
2018-Jul-12 18:58N 39°34' E 002°38'0 0.0
2018-Jul-12 18:28N 39°34' E 002°38'0 0.0
2018-Jul-12 17:55N 39°34' E 002°38'0 0.0
2018-Jul-12 17:28N 39°34' E 002°38'0 0.0
2018-Jul-12 16:58N 39°34' E 002°38'0 0.0
2018-Jul-12 16:28N 39°34' E 002°38'0 0.0
2018-Jul-12 15:58N 39°34' E 002°38'0 0.0
2018-Jul-12 15:30N 39°34' E 002°38'0 0.0
2018-Jul-12 15:00N 39°34' E 002°38'0 0.0
2018-Jul-12 14:30N 39°34' E 002°38'0 0.0
2018-Jul-12 14:00N 39°34' E 002°38'0 0.0
2018-Jul-12 13:30N 39°34' E 002°38'0 0.0
2018-Jul-12 13:00N 39°34' E 002°38'0 0.0
2018-Jul-12 12:30N 39°34' E 002°38'0 0.0
2018-Jul-12 12:00N 39°34' E 002°38'0 0.0
2018-Jul-12 11:27N 39°34' E 002°38'0 0.0
2018-Jul-12 11:00N 39°34' E 002°38'0 0.0
2018-Jul-12 10:30N 39°34' E 002°38'0 0.0
2018-Jul-12 10:00N 39°34' E 002°38'0 0.0
2018-Jul-12 09:30N 39°34' E 002°38'0 0.0
2018-Jul-12 08:57N 39°34' E 002°38'0 0.0
2018-Jul-12 08:30N 39°34' E 002°38'0 0.0
2018-Jul-12 08:00N 39°34' E 002°38'0 0.0
2018-Jul-12 07:30N 39°34' E 002°38'0 0.0
2018-Jul-12 07:00N 39°34' E 002°38'0 0.0
2018-Jul-12 06:30N 39°34' E 002°38'0 0.0
2018-Jul-12 06:00N 39°34' E 002°38'0 0.0
2018-Jul-12 05:30N 39°34' E 002°38'0 0.0
2018-Jul-12 05:00N 39°34' E 002°38'0 0.0
2018-Jul-12 04:30N 39°34' E 002°38'0 0.0
2018-Jul-12 04:00N 39°34' E 002°38'0 0.0
2018-Jul-12 03:30N 39°34' E 002°38'0 0.0
2018-Jul-12 03:00N 39°34' E 002°38'0 0.0
2018-Jul-12 02:30N 39°34' E 002°38'0 0.0
2018-Jul-12 02:00N 39°34' E 002°38'0 0.0
2018-Jul-12 01:30N 39°34' E 002°38'0 0.0
2018-Jul-12 01:00N 39°34' E 002°38'0 0.0
2018-Jul-12 00:30N 39°34' E 002°38'0 0.0
2018-Jul-12 00:00N 39°34' E 002°38'0 0.0
2018-Jul-11 23:30N 39°34' E 002°38'0 0.0
2018-Jul-11 23:00N 39°34' E 002°38'0 0.0
2018-Jul-11 22:30N 39°34' E 002°38'0 0.0
2018-Jul-11 22:00N 39°34' E 002°38'0 0.0
2018-Jul-11 21:30N 39°34' E 002°38'0 0.0
2018-Jul-11 21:00N 39°34' E 002°38'0 0.0
2018-Jul-11 20:30N 39°34' E 002°38'0 0.0
2018-Jul-11 20:00N 39°34' E 002°38'0 0.0
2018-Jul-11 19:30N 39°34' E 002°38'0 0.0
2018-Jul-11 19:00N 39°34' E 002°38'0 0.0
2018-Jul-11 18:30N 39°34' E 002°38'0 0.0
2018-Jul-11 18:00N 39°34' E 002°38'0 0.0
2018-Jul-11 17:24N 39°34' E 002°38'0 0.0
2018-Jul-11 16:58N 39°34' E 002°38'0 0.0
2018-Jul-11 16:28N 39°34' E 002°38'0 0.0
2018-Jul-11 15:58N 39°34' E 002°38'0 0.0
2018-Jul-11 15:28N 39°34' E 002°38'0 0.0
2018-Jul-11 14:58N 39°34' E 002°38'0 0.0
2018-Jul-11 14:28N 39°34' E 002°38'0 0.0
2018-Jul-11 13:58N 39°34' E 002°38'0 0.0
2018-Jul-11 13:28N 39°34' E 002°38'0 0.0
2018-Jul-11 12:58N 39°34' E 002°38'0 0.0
2018-Jul-11 12:28N 39°34' E 002°38'0 0.0
2018-Jul-11 11:58N 39°34' E 002°38'0 0.0
2018-Jul-11 11:28N 39°34' E 002°38'0 0.0
2018-Jul-11 10:58N 39°34' E 002°38'0 0.0
2018-Jul-11 10:28N 39°34' E 002°38'0 0.0
2018-Jul-11 09:58N 39°34' E 002°38'0 0.0
2018-Jul-11 09:25N 39°34' E 002°38'0 0.0
2018-Jul-11 08:55N 39°34' E 002°38'0 0.0
2018-Jul-11 08:25N 39°34' E 002°38'0 0.0
2018-Jul-11 07:58N 39°34' E 002°38'0 0.0
2018-Jul-11 07:28N 39°34' E 002°38'0 0.0
2018-Jul-11 06:58N 39°34' E 002°38'0 0.0
2018-Jul-11 06:25N 39°34' E 002°38'0 0.0
2018-Jul-11 05:58N 39°34' E 002°38'0 0.0
2018-Jul-11 05:28N 39°34' E 002°38'0 0.0
2018-Jul-11 04:58N 39°34' E 002°38'0 0.0
2018-Jul-11 04:28N 39°34' E 002°38'0 0.0
2018-Jul-11 03:58N 39°34' E 002°38'0 0.0
2018-Jul-11 03:28N 39°34' E 002°38'0 0.0
2018-Jul-11 02:58N 39°34' E 002°38'0 0.0
2018-Jul-11 02:28N 39°34' E 002°38'0 0.0
2018-Jul-11 01:58N 39°34' E 002°38'0 0.0
2018-Jul-11 01:28N 39°34' E 002°38'0 0.0
2018-Jul-11 00:58N 39°34' E 002°38'0 0.0
2018-Jul-11 00:28N 39°34' E 002°38'0 0.0
2018-Jul-10 23:58N 39°34' E 002°38'0 0.0
2018-Jul-10 23:28N 39°34' E 002°38'0 0.0
2018-Jul-10 22:58N 39°34' E 002°38'0 0.0
2018-Jul-10 22:28N 39°34' E 002°38'0 0.0
2018-Jul-10 21:58N 39°34' E 002°38'0 0.0
2018-Jul-10 21:25N 39°34' E 002°38'0 0.0
2018-Jul-10 20:55N 39°34' E 002°38'0 0.0
2018-Jul-10 20:28N 39°34' E 002°38'0 0.0
2018-Jul-10 19:58N 39°34' E 002°38'0 0.0
2018-Jul-10 19:28N 39°34' E 002°38'0 0.0
2018-Jul-10 18:52N 39°34' E 002°38'0 0.0
2018-Jul-10 18:28N 39°34' E 002°38'0 0.0
2018-Jul-10 17:58N 39°34' E 002°38'0 0.0
2018-Jul-10 17:28N 39°34' E 002°38'0 0.0
2018-Jul-10 16:58N 39°34' E 002°38'0 0.0
2018-Jul-10 16:28N 39°34' E 002°38'0 0.0
2018-Jul-10 15:55N 39°34' E 002°38'0 0.0
2018-Jul-10 15:28N 39°34' E 002°38'0 0.0
2018-Jul-10 14:58N 39°34' E 002°38'0 0.0
2018-Jul-10 14:28N 39°34' E 002°38'0 0.0
2018-Jul-10 13:58N 39°34' E 002°38'0 0.0
2018-Jul-10 13:28N 39°34' E 002°38'0 0.0
2018-Jul-10 12:58N 39°34' E 002°38'0 0.0
2018-Jul-10 12:28N 39°34' E 002°38'0 0.0
2018-Jul-10 11:58N 39°34' E 002°38'0 0.0
2018-Jul-10 11:28N 39°34' E 002°38'0 0.0
2018-Jul-10 10:58N 39°34' E 002°38'0 0.0
2018-Jul-10 10:28N 39°34' E 002°38'0 0.0
2018-Jul-10 09:58N 39°34' E 002°38'0 0.0
2018-Jul-10 09:25N 39°34' E 002°38'0 0.0
2018-Jul-10 08:58N 39°34' E 002°38'0 0.0
2018-Jul-10 08:28N 39°34' E 002°38'0 0.0
2018-Jul-10 07:52N 39°34' E 002°38'0 0.0
2018-Jul-10 07:28N 39°34' E 002°38'0 0.0
2018-Jul-10 06:55N 39°34' E 002°38'0 0.0
2018-Jul-10 06:28N 39°34' E 002°38'0 0.0
2018-Jul-10 05:58N 39°34' E 002°38'0 0.0
2018-Jul-10 05:28N 39°34' E 002°38'0 0.0
2018-Jul-10 04:58N 39°34' E 002°38'0 0.0
2018-Jul-10 04:28N 39°34' E 002°38'0 0.0
2018-Jul-10 03:58N 39°34' E 002°38'0 0.0
2018-Jul-10 03:28N 39°34' E 002°38'0 0.0
2018-Jul-10 02:58N 39°34' E 002°38'0 0.0
2018-Jul-10 02:28N 39°34' E 002°38'0 0.0
2018-Jul-10 01:58N 39°34' E 002°38'0 0.0
2018-Jul-10 01:28N 39°34' E 002°38'0 0.0
2018-Jul-10 00:58N 39°34' E 002°38'0 0.0
2018-Jul-10 00:28N 39°34' E 002°38'0 0.0
2018-Jul-09 23:58N 39°34' E 002°38'0 0.0
2018-Jul-09 23:28N 39°34' E 002°38'0 0.0
2018-Jul-09 22:58N 39°34' E 002°38'0 0.0
2018-Jul-09 22:28N 39°34' E 002°38'0 0.0
2018-Jul-09 21:58N 39°34' E 002°38'0 0.0
2018-Jul-09 21:25N 39°34' E 002°38'0 0.0
2018-Jul-09 20:58N 39°34' E 002°38'0 0.0
2018-Jul-09 20:28N 39°34' E 002°38'0 0.0
2018-Jul-09 19:58N 39°34' E 002°38'0 0.0
2018-Jul-09 19:28N 39°34' E 002°38'0 0.0
2018-Jul-09 18:58N 39°34' E 002°38'0 0.0
2018-Jul-09 18:28N 39°34' E 002°38'0 0.0
2018-Jul-09 17:58N 39°34' E 002°38'0 0.0
2018-Jul-09 17:28N 39°34' E 002°38'0 0.0
2018-Jul-09 16:58N 39°34' E 002°38'0 0.0
2018-Jul-09 16:25N 39°34' E 002°38'0 0.0
2018-Jul-09 15:58N 39°34' E 002°38'0 0.0
2018-Jul-09 15:28N 39°34' E 002°38'0 0.0
2018-Jul-09 15:00N 39°34' E 002°38'0 0.2
2018-Jul-09 14:30N 39°34' E 002°38'0 0.9
2018-Jul-09 14:00N 39°34' E 002°38'0 0.0
2018-Jul-09 13:30N 39°34' E 002°38'0 0.9
2018-Jul-09 13:00N 39°34' E 002°38'3 5.4
2018-Jul-09 12:30N 39°31' E 002°37'1 1.8
2018-Jul-09 12:00N 39°32' E 002°38'1 1.2
2018-Jul-09 11:30N 39°31' E 002°39'1 1.1
2018-Jul-09 11:00N 39°32' E 002°39'0 0.6
2018-Jul-09 10:30N 39°31' E 002°39'0 0.7
2018-Jul-09 09:58N 39°31' E 002°40'1 2.2
2018-Jul-09 09:30N 39°32' E 002°39'1 2.0
2018-Jul-09 09:00N 39°33' E 002°39'1 2.1
2018-Jul-09 08:28N 39°34' E 002°38'0 0.0
2018-Jul-09 07:58N 39°34' E 002°38'0 0.0
2018-Jul-09 07:28N 39°34' E 002°38'0 0.0
2018-Jul-09 06:58N 39°34' E 002°38'0 0.0
2018-Jul-09 06:28N 39°34' E 002°38'0 0.0
2018-Jul-09 05:58N 39°34' E 002°38'0 0.0
2018-Jul-09 05:28N 39°34' E 002°38'0 0.0
2018-Jul-09 04:58N 39°34' E 002°38'0 0.0
2018-Jul-09 04:28N 39°34' E 002°38'0 0.0
2018-Jul-09 03:58N 39°34' E 002°38'0 0.0
2018-Jul-09 03:28N 39°34' E 002°38'0 0.0
2018-Jul-09 02:58N 39°34' E 002°38'0 0.0
2018-Jul-09 02:28N 39°34' E 002°38'0 0.0
2018-Jul-09 01:58N 39°34' E 002°38'0 0.0
2018-Jul-09 01:28N 39°34' E 002°38'0 0.0
2018-Jul-09 00:58N 39°34' E 002°38'0 0.0
2018-Jul-09 00:28N 39°34' E 002°38'0 0.0
2018-Jul-08 23:58N 39°34' E 002°38'0 0.0
2018-Jul-08 23:28N 39°34' E 002°38'0 0.0
2018-Jul-08 22:58N 39°34' E 002°38'0 0.0
2018-Jul-08 22:28N 39°34' E 002°38'0 0.0
2018-Jul-08 21:49N 39°34' E 002°38'0 0.0
2018-Jul-08 21:28N 39°34' E 002°38'0 0.0
2018-Jul-08 20:58N 39°34' E 002°38'0 0.0
2018-Jul-08 20:28N 39°34' E 002°38'0 0.0
2018-Jul-08 19:58N 39°34' E 002°38'0 0.0
2018-Jul-08 19:28N 39°34' E 002°38'0 0.0
2018-Jul-08 18:58N 39°34' E 002°38'0 0.0
2018-Jul-08 18:28N 39°34' E 002°38'0 0.0
2018-Jul-08 17:58N 39°34' E 002°38'0 0.0
2018-Jul-08 17:19N 39°34' E 002°38'0 0.0
2018-Jul-08 16:58N 39°34' E 002°38'0 0.0
2018-Jul-08 16:28N 39°34' E 002°38'0 0.0
2018-Jul-08 15:58N 39°34' E 002°38'0 0.0
2018-Jul-08 15:28N 39°34' E 002°38'0 0.0
2018-Jul-08 14:58N 39°34' E 002°38'0 0.0
2018-Jul-08 14:28N 39°34' E 002°38'0 0.0
2018-Jul-08 13:58N 39°34' E 002°38'0 0.0
2018-Jul-08 13:28N 39°34' E 002°38'0 0.0
2018-Jul-08 12:58N 39°34' E 002°38'0 0.0
2018-Jul-08 12:28N 39°34' E 002°38'0 0.0
2018-Jul-08 11:58N 39°34' E 002°38'0 0.0
2018-Jul-08 11:28N 39°34' E 002°38'0 0.0
2018-Jul-08 10:58N 39°34' E 002°38'0 0.0
2018-Jul-08 10:28N 39°34' E 002°38'0 0.0
2018-Jul-08 09:58N 39°34' E 002°38'0 0.0
2018-Jul-08 09:28N 39°34' E 002°38'0 0.0
2018-Jul-08 08:55N 39°34' E 002°38'0 0.0
2018-Jul-08 08:28N 39°34' E 002°38'0 0.0
2018-Jul-08 07:58N 39°34' E 002°38'0 0.0
2018-Jul-08 07:28N 39°34' E 002°38'0 0.0
2018-Jul-08 06:58N 39°34' E 002°38'0 0.0
2018-Jul-08 06:19N 39°34' E 002°38'0 0.0
2018-Jul-08 05:58N 39°34' E 002°38'0 0.0
2018-Jul-08 05:28N 39°34' E 002°38'0 0.0
2018-Jul-08 04:58N 39°34' E 002°38'0 0.0
2018-Jul-08 04:28N 39°34' E 002°38'0 0.0
2018-Jul-08 03:55N 39°34' E 002°38'0 0.0
2018-Jul-08 03:28N 39°34' E 002°38'0 0.0
2018-Jul-08 02:58N 39°34' E 002°38'0 0.0
2018-Jul-08 02:28N 39°34' E 002°38'0 0.0
2018-Jul-08 01:58N 39°34' E 002°38'0 0.0
2018-Jul-08 01:28N 39°34' E 002°38'0 0.0
2018-Jul-08 00:58N 39°34' E 002°38'0 0.0
2018-Jul-08 00:28N 39°34' E 002°38'0 0.0
2018-Jul-07 23:58N 39°34' E 002°38'0 0.0
2018-Jul-07 23:28N 39°34' E 002°38'0 0.0
2018-Jul-07 22:58N 39°34' E 002°38'0 0.0
2018-Jul-07 22:28N 39°34' E 002°38'0 0.0
2018-Jul-07 21:58N 39°34' E 002°38'0 0.0
2018-Jul-07 21:28N 39°34' E 002°38'0 0.0
2018-Jul-07 20:58N 39°34' E 002°38'0 0.0
2018-Jul-07 20:28N 39°34' E 002°38'0 0.0
2018-Jul-07 19:58N 39°34' E 002°38'0 0.0
2018-Jul-07 19:28N 39°34' E 002°38'0 0.0
2018-Jul-07 18:55N 39°34' E 002°38'0 0.0
2018-Jul-07 18:28N 39°34' E 002°38'0 0.0
2018-Jul-07 17:58N 39°34' E 002°38'0 0.0
2018-Jul-07 17:28N 39°34' E 002°38'0 0.0
2018-Jul-07 16:55N 39°34' E 002°38'0 0.0
2018-Jul-07 16:28N 39°34' E 002°38'0 0.0
2018-Jul-07 15:58N 39°34' E 002°38'0 0.0
2018-Jul-07 15:28N 39°34' E 002°38'0 0.0
2018-Jul-07 14:58N 39°34' E 002°38'0 0.0
2018-Jul-07 14:28N 39°34' E 002°38'0 0.0
2018-Jul-07 13:55N 39°34' E 002°38'0 0.0
2018-Jul-07 13:28N 39°34' E 002°38'0 0.0
2018-Jul-07 12:58N 39°34' E 002°38'0 0.0
2018-Jul-07 12:28N 39°34' E 002°38'0 0.0
2018-Jul-07 11:58N 39°34' E 002°38'0 0.0
2018-Jul-07 11:28N 39°34' E 002°38'0 0.0
2018-Jul-07 10:58N 39°34' E 002°38'0 0.0
2018-Jul-07 10:25N 39°34' E 002°38'0 0.0
2018-Jul-07 09:58N 39°34' E 002°38'0 0.0
2018-Jul-07 09:22N 39°34' E 002°38'0 0.0
2018-Jul-07 08:58N 39°34' E 002°38'0 0.0
2018-Jul-07 08:28N 39°34' E 002°38'0 0.0
2018-Jul-07 07:58N 39°34' E 002°38'0 0.0
2018-Jul-07 07:22N 39°34' E 002°38'0 0.0
2018-Jul-07 06:58N 39°34' E 002°38'0 0.0
2018-Jul-07 06:28N 39°34' E 002°38'0 0.0
2018-Jul-07 05:58N 39°34' E 002°38'  
Track history (hours):
 
Tides and Currents Weather Stations Pressure Air Temp Water Temp Dewpoint Dewpoint Depression Visibility Wind Speed Wind Dir Waves Ship Positions

Sojana

Last reported at 2018-Jul-17 05:38 UTC. Time now 2018-Jul-20 22:03 UTC.
Position N 37°54' E 015°48'.

Length 35 m; draft 4.5 m.

Type: Sailing vessel. MMSI: 248519000.

Date/timePositionNaut miles runAvg speedWind from/ knotsBaromVisibWave heightAir tempDewpointWater temp
2018-Jul-17 05:38N 37°54' E 015°48'1 9.1
2018-Jul-17 05:30N 37°54' E 015°47'9 9.3
2018-Jul-17 04:33N 37°59' E 015°38'1 9.5
2018-Jul-17 04:26N 38°00' E 015°37'4 9.6
2018-Jul-17 04:00N 38°04' E 015°36'5 9.3
2018-Jul-17 03:29N 38°09' E 015°35'6 9.1
2018-Jul-17 02:50N 38°15' E 015°37'3 5.5
2018-Jul-17 02:16N 38°18' E 015°37'3 9.8
2018-Jul-17 02:00N 38°19' E 015°34'5 9.5
2018-Jul-17 01:30N 38°20' E 015°28'5 9.8
2018-Jul-17 01:00N 38°20' E 015°22'5 9.5
2018-Jul-17 00:27N 38°20' E 015°15'9 9.2
2018-Jul-16 23:29N 38°20' E 015°04'9 9.1
2018-Jul-16 22:26N 38°21' E 014°52'6 8.6
2018-Jul-16 21:48N 38°21' E 014°45'3 8.1
2018-Jul-16 21:24N 38°21' E 014°41'43 8.5
2018-Jul-16 16:21N 38°26' E 013°46'8 9.8
2018-Jul-16 15:31N 38°26' E 013°35'210.1
2018-Jul-16 15:19N 38°27' E 013°33'4 9.2
2018-Jul-16 14:52N 38°27' E 013°28'3 9.1
2018-Jul-16 14:30N 38°27' E 013°23'610.2
2018-Jul-16 13:57N 38°28' E 013°16'4 9.2
2018-Jul-16 13:30N 38°28' E 013°11'8 7.9
2018-Jul-16 12:27N 38°30' E 013°00'3 7.9
2018-Jul-16 12:00N 38°30' E 012°56'4 8.3
2018-Jul-16 11:30N 38°30' E 012°51'7 7.9
2018-Jul-16 10:40N 38°31' E 012°42'1 8.2
2018-Jul-16 10:31N 38°31' E 012°41'449 9.0
2018-Jul-14 08:41N 39°15' E 003°06'2 8.6
2018-Jul-14 08:28N 39°15' E 003°04'4 9.0
2018-Jul-14 08:01N 39°17' E 002°59'5 9.1
2018-Jul-14 07:30N 39°19' E 002°54'5 9.1
2018-Jul-14 07:00N 39°21' E 002°49'4 8.6
2018-Jul-14 06:29N 39°24' E 002°44'4 9.2
2018-Jul-14 06:00N 39°28' E 002°42'5 9.2
2018-Jul-14 05:30N 39°32' E 002°39'2 3.4
2018-Jul-14 04:55N 39°34' E 002°38'0 0.0
2018-Jul-14 04:28N 39°34' E 002°38'0 0.0
2018-Jul-14 03:58N 39°34' E 002°38'0 0.0
2018-Jul-14 03:28N 39°34' E 002°38'0 0.0
2018-Jul-14 02:58N 39°34' E 002°38'0 0.0
2018-Jul-14 02:28N 39°34' E 002°38'0 0.0
2018-Jul-14 01:58N 39°34' E 002°38'0 0.0
2018-Jul-14 01:28N 39°34' E 002°38'0 0.0
2018-Jul-14 00:58N 39°34' E 002°38'0 0.0
2018-Jul-14 00:28N 39°34' E 002°38'0 0.0
2018-Jul-13 23:58N 39°34' E 002°38'0 0.0
2018-Jul-13 23:28N 39°34' E 002°38'0 0.0
2018-Jul-13 22:58N 39°34' E 002°38'0 0.0
2018-Jul-13 22:28N 39°34' E 002°38'0 0.0
2018-Jul-13 21:58N 39°34' E 002°38'0 0.0
2018-Jul-13 21:28N 39°34' E 002°38'0 0.0
2018-Jul-13 20:58N 39°34' E 002°38'0 0.0
2018-Jul-13 20:28N 39°34' E 002°38'0 0.0
2018-Jul-13 19:58N 39°34' E 002°38'0 0.0
2018-Jul-13 19:28N 39°34' E 002°38'0 0.0
2018-Jul-13 18:58N 39°34' E 002°38'0 0.0
2018-Jul-13 18:28N 39°34' E 002°38'0 0.0
2018-Jul-13 17:58N 39°34' E 002°38'0 0.0
2018-Jul-13 17:28N 39°34' E 002°38'0 0.0
2018-Jul-13 16:58N 39°34' E 002°38'0 0.0
2018-Jul-13 16:28N 39°34' E 002°38'0 0.0
2018-Jul-13 15:58N 39°34' E 002°38'0 0.0
2018-Jul-13 15:28N 39°34' E 002°38'0 0.0
2018-Jul-13 14:55N 39°34' E 002°38'0 0.0
2018-Jul-13 13:58N 39°34' E 002°38'0 0.0
2018-Jul-13 13:28N 39°34' E 002°38'0 0.0
2018-Jul-13 12:58N 39°34' E 002°38'0 0.0
2018-Jul-13 12:28N 39°34' E 002°38'0 0.0
2018-Jul-13 11:58N 39°34' E 002°38'0 0.0
2018-Jul-13 11:28N 39°34' E 002°38'0 0.0
2018-Jul-13 10:52N 39°34' E 002°38'0 0.0
2018-Jul-13 10:28N 39°34' E 002°38'0 0.0
2018-Jul-13 09:58N 39°34' E 002°38'0 0.0
2018-Jul-13 09:28N 39°34' E 002°38'0 0.0
2018-Jul-13 08:58N 39°34' E 002°38'0 0.0
2018-Jul-13 08:28N 39°34' E 002°38'0 0.0
2018-Jul-13 07:58N 39°34' E 002°38'0 0.0
2018-Jul-13 07:28N 39°34' E 002°38'0 0.0
2018-Jul-13 06:58N 39°34' E 002°38'0 0.0
2018-Jul-13 06:25N 39°34' E 002°38'0 0.0
2018-Jul-13 05:58N 39°34' E 002°38'0 0.0
2018-Jul-13 05:25N 39°34' E 002°38'0 0.0
2018-Jul-13 04:55N 39°34' E 002°38'0 0.0
2018-Jul-13 04:28N 39°34' E 002°38'0 0.0
2018-Jul-13 03:58N 39°34' E 002°38'0 0.0
2018-Jul-13 03:28N 39°34' E 002°38'0 0.0
2018-Jul-13 02:58N 39°34' E 002°38'0 0.0
2018-Jul-13 02:28N 39°34' E 002°38'0 0.0
2018-Jul-13 01:58N 39°34' E 002°38'0 0.0
2018-Jul-13 01:28N 39°34' E 002°38'0 0.0
2018-Jul-13 00:58N 39°34' E 002°38'0 0.0
2018-Jul-13 00:28N 39°34' E 002°38'0 0.0
2018-Jul-12 23:58N 39°34' E 002°38'0 0.0
2018-Jul-12 23:28N 39°34' E 002°38'0 0.0
2018-Jul-12 22:58N 39°34' E 002°38'0 0.0
2018-Jul-12 22:28N 39°34' E 002°38'0 0.0
2018-Jul-12 21:58N 39°34' E 002°38'0 0.0
2018-Jul-12 21:28N 39°34' E 002°38'0 0.0
2018-Jul-12 20:58N 39°34' E 002°38'0 0.0
2018-Jul-12 20:28N 39°34' E 002°38'0 0.0
2018-Jul-12 19:58N 39°34' E 002°38'0 0.0
2018-Jul-12 19:28N 39°34' E 002°38'0 0.0
2018-Jul-12 18:58N 39°34' E 002°38'0 0.0
2018-Jul-12 18:28N 39°34' E 002°38'0 0.0
2018-Jul-12 17:55N 39°34' E 002°38'0 0.0
2018-Jul-12 17:28N 39°34' E 002°38'0 0.0
2018-Jul-12 16:58N 39°34' E 002°38'0 0.0
2018-Jul-12 16:28N 39°34' E 002°38'0 0.0
2018-Jul-12 15:58N 39°34' E 002°38'0 0.0
2018-Jul-12 15:30N 39°34' E 002°38'0 0.0
2018-Jul-12 15:00N 39°34' E 002°38'0 0.0
2018-Jul-12 14:30N 39°34' E 002°38'0 0.0
2018-Jul-12 14:00N 39°34' E 002°38'0 0.0
2018-Jul-12 13:30N 39°34' E 002°38'0 0.0
2018-Jul-12 13:00N 39°34' E 002°38'0 0.0
2018-Jul-12 12:30N 39°34' E 002°38'0 0.0
2018-Jul-12 12:00N 39°34' E 002°38'0 0.0
2018-Jul-12 11:27N 39°34' E 002°38'0 0.0
2018-Jul-12 11:00N 39°34' E 002°38'0 0.0
2018-Jul-12 10:30N 39°34' E 002°38'0 0.0
2018-Jul-12 10:00N 39°34' E 002°38'0 0.0
2018-Jul-12 09:30N 39°34' E 002°38'0 0.0
2018-Jul-12 08:57N 39°34' E 002°38'0 0.0
2018-Jul-12 08:30N 39°34' E 002°38'0 0.0
2018-Jul-12 08:00N 39°34' E 002°38'0 0.0
2018-Jul-12 07:30N 39°34' E 002°38'0 0.0
2018-Jul-12 07:00N 39°34' E 002°38'0 0.0
2018-Jul-12 06:30N 39°34' E 002°38'0 0.0
2018-Jul-12 06:00N 39°34' E 002°38'0 0.0
2018-Jul-12 05:30N 39°34' E 002°38'0 0.0
2018-Jul-12 05:00N 39°34' E 002°38'0 0.0
2018-Jul-12 04:30N 39°34' E 002°38'0 0.0
2018-Jul-12 04:00N 39°34' E 002°38'0 0.0
2018-Jul-12 03:30N 39°34' E 002°38'0 0.0
2018-Jul-12 03:00N 39°34' E 002°38'0 0.0
2018-Jul-12 02:30N 39°34' E 002°38'0 0.0
2018-Jul-12 02:00N 39°34' E 002°38'0 0.0
2018-Jul-12 01:30N 39°34' E 002°38'0 0.0
2018-Jul-12 01:00N 39°34' E 002°38'0 0.0
2018-Jul-12 00:30N 39°34' E 002°38'0 0.0
2018-Jul-12 00:00N 39°34' E 002°38'0 0.0
2018-Jul-11 23:30N 39°34' E 002°38'0 0.0
2018-Jul-11 23:00N 39°34' E 002°38'0 0.0
2018-Jul-11 22:30N 39°34' E 002°38'0 0.0
2018-Jul-11 22:00N 39°34' E 002°38'0 0.0
2018-Jul-11 21:30N 39°34' E 002°38'0 0.0
2018-Jul-11 21:00N 39°34' E 002°38'0 0.0
2018-Jul-11 20:30N 39°34' E 002°38'0 0.0
2018-Jul-11 20:00N 39°34' E 002°38'0 0.0
2018-Jul-11 19:30N 39°34' E 002°38'0 0.0
2018-Jul-11 19:00N 39°34' E 002°38'0 0.0
2018-Jul-11 18:30N 39°34' E 002°38'0 0.0
2018-Jul-11 18:00N 39°34' E 002°38'0 0.0
2018-Jul-11 17:24N 39°34' E 002°38'0 0.0
2018-Jul-11 16:58N 39°34' E 002°38'0 0.0
2018-Jul-11 16:28N 39°34' E 002°38'0 0.0
2018-Jul-11 15:58N 39°34' E 002°38'0 0.0
2018-Jul-11 15:28N 39°34' E 002°38'0 0.0
2018-Jul-11 14:58N 39°34' E 002°38'0 0.0
2018-Jul-11 14:28N 39°34' E 002°38'0 0.0
2018-Jul-11 13:58N 39°34' E 002°38'0 0.0
2018-Jul-11 13:28N 39°34' E 002°38'0 0.0
2018-Jul-11 12:58N 39°34' E 002°38'0 0.0
2018-Jul-11 12:28N 39°34' E 002°38'0 0.0
2018-Jul-11 11:58N 39°34' E 002°38'0 0.0
2018-Jul-11 11:28N 39°34' E 002°38'0 0.0
2018-Jul-11 10:58N 39°34' E 002°38'0 0.0
2018-Jul-11 10:28N 39°34' E 002°38'0 0.0
2018-Jul-11 09:58N 39°34' E 002°38'0 0.0
2018-Jul-11 09:25N 39°34' E 002°38'0 0.0
2018-Jul-11 08:55N 39°34' E 002°38'0 0.0
2018-Jul-11 08:25N 39°34' E 002°38'0 0.0
2018-Jul-11 07:58N 39°34' E 002°38'0 0.0
2018-Jul-11 07:28N 39°34' E 002°38'0 0.0
2018-Jul-11 06:58N 39°34' E 002°38'0 0.0
2018-Jul-11 06:25N 39°34' E 002°38'0 0.0
2018-Jul-11 05:58N 39°34' E 002°38'0 0.0
2018-Jul-11 05:28N 39°34' E 002°38'0 0.0
2018-Jul-11 04:58N 39°34' E 002°38'0 0.0
2018-Jul-11 04:28N 39°34' E 002°38'0 0.0
2018-Jul-11 03:58N 39°34' E 002°38'0 0.0
2018-Jul-11 03:28N 39°34' E 002°38'0 0.0
2018-Jul-11 02:58N 39°34' E 002°38'0 0.0
2018-Jul-11 02:28N 39°34' E 002°38'0 0.0
2018-Jul-11 01:58N 39°34' E 002°38'0 0.0
2018-Jul-11 01:28N 39°34' E 002°38'0 0.0
2018-Jul-11 00:58N 39°34' E 002°38'0 0.0
2018-Jul-11 00:28N 39°34' E 002°38'0 0.0
2018-Jul-10 23:58N 39°34' E 002°38'0 0.0
2018-Jul-10 23:28N 39°34' E 002°38'0 0.0
2018-Jul-10 22:58N 39°34' E 002°38'0 0.0
2018-Jul-10 22:28N 39°34' E 002°38'0 0.0
2018-Jul-10 21:58N 39°34' E 002°38'0 0.0
2018-Jul-10 21:25N 39°34' E 002°38'0 0.0
2018-Jul-10 20:55N 39°34' E 002°38'0 0.0
2018-Jul-10 20:28N 39°34' E 002°38'0 0.0
2018-Jul-10 19:58N 39°34' E 002°38'0 0.0
2018-Jul-10 19:28N 39°34' E 002°38'0 0.0
2018-Jul-10 18:52N 39°34' E 002°38'0 0.0
2018-Jul-10 18:28N 39°34' E 002°38'0 0.0
2018-Jul-10 17:58N 39°34' E 002°38'0 0.0
2018-Jul-10 17:28N 39°34' E 002°38'0 0.0
2018-Jul-10 16:58N 39°34' E 002°38'0 0.0
2018-Jul-10 16:28N 39°34' E 002°38'0 0.0
2018-Jul-10 15:55N 39°34' E 002°38'0 0.0
2018-Jul-10 15:28N 39°34' E 002°38'0 0.0
2018-Jul-10 14:58N 39°34' E 002°38'0 0.0
2018-Jul-10 14:28N 39°34' E 002°38'0 0.0
2018-Jul-10 13:58N 39°34' E 002°38'0 0.0
2018-Jul-10 13:28N 39°34' E 002°38'0 0.0
2018-Jul-10 12:58N 39°34' E 002°38'0 0.0
2018-Jul-10 12:28N 39°34' E 002°38'0 0.0
2018-Jul-10 11:58N 39°34' E 002°38'0 0.0
2018-Jul-10 11:28N 39°34' E 002°38'0 0.0
2018-Jul-10 10:58N 39°34' E 002°38'0 0.0
2018-Jul-10 10:28N 39°34' E 002°38'0 0.0
2018-Jul-10 09:58N 39°34' E 002°38'0 0.0
2018-Jul-10 09:25N 39°34' E 002°38'0 0.0
2018-Jul-10 08:58N 39°34' E 002°38'0 0.0
2018-Jul-10 08:28N 39°34' E 002°38'0 0.0
2018-Jul-10 07:52N 39°34' E 002°38'0 0.0
2018-Jul-10 07:28N 39°34' E 002°38'0 0.0
2018-Jul-10 06:55N 39°34' E 002°38'0 0.0
2018-Jul-10 06:28N 39°34' E 002°38'0 0.0
2018-Jul-10 05:58N 39°34' E 002°38'0 0.0
2018-Jul-10 05:28N 39°34' E 002°38'0 0.0
2018-Jul-10 04:58N 39°34' E 002°38'0 0.0
2018-Jul-10 04:28N 39°34' E 002°38'0 0.0
2018-Jul-10 03:58N 39°34' E 002°38'0 0.0
2018-Jul-10 03:28N 39°34' E 002°38'0 0.0
2018-Jul-10 02:58N 39°34' E 002°38'0 0.0
2018-Jul-10 02:28N 39°34' E 002°38'0 0.0
2018-Jul-10 01:58N 39°34' E 002°38'0 0.0
2018-Jul-10 01:28N 39°34' E 002°38'0 0.0
2018-Jul-10 00:58N 39°34' E 002°38'0 0.0
2018-Jul-10 00:28N 39°34' E 002°38'0 0.0
2018-Jul-09 23:58N 39°34' E 002°38'0 0.0
2018-Jul-09 23:28N 39°34' E 002°38'0 0.0
2018-Jul-09 22:58N 39°34' E 002°38'0 0.0
2018-Jul-09 22:28N 39°34' E 002°38'0 0.0
2018-Jul-09 21:58N 39°34' E 002°38'0 0.0
2018-Jul-09 21:25N 39°34' E 002°38'0 0.0
2018-Jul-09 20:58N 39°34' E 002°38'0 0.0
2018-Jul-09 20:28N 39°34' E 002°38'0 0.0
2018-Jul-09 19:58N 39°34' E 002°38'0 0.0
2018-Jul-09 19:28N 39°34' E 002°38'0 0.0
2018-Jul-09 18:58N 39°34' E 002°38'0 0.0
2018-Jul-09 18:28N 39°34' E 002°38'0 0.0
2018-Jul-09 17:58N 39°34' E 002°38'0 0.0
2018-Jul-09 17:28N 39°34' E 002°38'0 0.0
2018-Jul-09 16:58N 39°34' E 002°38'0 0.0
2018-Jul-09 16:25N 39°34' E 002°38'0 0.0
2018-Jul-09 15:58N 39°34' E 002°38'0 0.0
2018-Jul-09 15:28N 39°34' E 002°38'0 0.0
2018-Jul-09 15:00N 39°34' E 002°38'0 0.2
2018-Jul-09 14:30N 39°34' E 002°38'0 0.9
2018-Jul-09 14:00N 39°34' E 002°38'0 0.0
2018-Jul-09 13:30N 39°34' E 002°38'0 0.9
2018-Jul-09 13:00N 39°34' E 002°38'3 5.4
2018-Jul-09 12:30N 39°31' E 002°37'1 1.8
2018-Jul-09 12:00N 39°32' E 002°38'1 1.2
2018-Jul-09 11:30N 39°31' E 002°39'1 1.1
2018-Jul-09 11:00N 39°32' E 002°39'0 0.6
2018-Jul-09 10:30N 39°31' E 002°39'0 0.7
2018-Jul-09 09:58N 39°31' E 002°40'1 2.2
2018-Jul-09 09:30N 39°32' E 002°39'1 2.0
2018-Jul-09 09:00N 39°33' E 002°39'1 2.1
2018-Jul-09 08:28N 39°34' E 002°38'0 0.0
2018-Jul-09 07:58N 39°34' E 002°38'0 0.0
2018-Jul-09 07:28N 39°34' E 002°38'0 0.0
2018-Jul-09 06:58N 39°34' E 002°38'0 0.0
2018-Jul-09 06:28N 39°34' E 002°38'0 0.0
2018-Jul-09 05:58N 39°34' E 002°38'0 0.0
2018-Jul-09 05:28N 39°34' E 002°38'0 0.0
2018-Jul-09 04:58N 39°34' E 002°38'0 0.0
2018-Jul-09 04:28N 39°34' E 002°38'0 0.0
2018-Jul-09 03:58N 39°34' E 002°38'0 0.0
2018-Jul-09 03:28N 39°34' E 002°38'0 0.0
2018-Jul-09 02:58N 39°34' E 002°38'0 0.0
2018-Jul-09 02:28N 39°34' E 002°38'0 0.0
2018-Jul-09 01:58N 39°34' E 002°38'0 0.0
2018-Jul-09 01:28N 39°34' E 002°38'0 0.0
2018-Jul-09 00:58N 39°34' E 002°38'0 0.0
2018-Jul-09 00:28N 39°34' E 002°38'0 0.0
2018-Jul-08 23:58N 39°34' E 002°38'0 0.0
2018-Jul-08 23:28N 39°34' E 002°38'0 0.0
2018-Jul-08 22:58N 39°34' E 002°38'0 0.0
2018-Jul-08 22:28N 39°34' E 002°38'0 0.0
2018-Jul-08 21:49N 39°34' E 002°38'0 0.0
2018-Jul-08 21:28N 39°34' E 002°38'0 0.0
2018-Jul-08 20:58N 39°34' E 002°38'0 0.0
2018-Jul-08 20:28N 39°34' E 002°38'0 0.0
2018-Jul-08 19:58N 39°34' E 002°38'0 0.0
2018-Jul-08 19:28N 39°34' E 002°38'0 0.0
2018-Jul-08 18:58N 39°34' E 002°38'0 0.0
2018-Jul-08 18:28N 39°34' E 002°38'0 0.0
2018-Jul-08 17:58N 39°34' E 002°38'0 0.0
2018-Jul-08 17:19N 39°34' E 002°38'0 0.0
2018-Jul-08 16:58N 39°34' E 002°38'0 0.0
2018-Jul-08 16:28N 39°34' E 002°38'0 0.0
2018-Jul-08 15:58N 39°34' E 002°38'0 0.0
2018-Jul-08 15:28N 39°34' E 002°38'0 0.0
2018-Jul-08 14:58N 39°34' E 002°38'0 0.0
2018-Jul-08 14:28N 39°34' E 002°38'0 0.0
2018-Jul-08 13:58N 39°34' E 002°38'0 0.0
2018-Jul-08 13:28N 39°34' E 002°38'0 0.0
2018-Jul-08 12:58N 39°34' E 002°38'0 0.0
2018-Jul-08 12:28N 39°34' E 002°38'0 0.0
2018-Jul-08 11:58N 39°34' E 002°38'0 0.0
2018-Jul-08 11:28N 39°34' E 002°38'0 0.0
2018-Jul-08 10:58N 39°34' E 002°38'0 0.0
2018-Jul-08 10:28N 39°34' E 002°38'0 0.0
2018-Jul-08 09:58N 39°34' E 002°38'0 0.0
2018-Jul-08 09:28N 39°34' E 002°38'0 0.0
2018-Jul-08 08:55N 39°34' E 002°38'0 0.0
2018-Jul-08 08:28N 39°34' E 002°38'0 0.0
2018-Jul-08 07:58N 39°34' E 002°38'0 0.0
2018-Jul-08 07:28N 39°34' E 002°38'0 0.0
2018-Jul-08 06:58N 39°34' E 002°38'0 0.0
2018-Jul-08 06:19N 39°34' E 002°38'0 0.0
2018-Jul-08 05:58N 39°34' E 002°38'0 0.0
2018-Jul-08 05:28N 39°34' E 002°38'0 0.0
2018-Jul-08 04:58N 39°34' E 002°38'0 0.0
2018-Jul-08 04:28N 39°34' E 002°38'0 0.0
2018-Jul-08 03:55N 39°34' E 002°38'0 0.0
2018-Jul-08 03:28N 39°34' E 002°38'0 0.0
2018-Jul-08 02:58N 39°34' E 002°38'0 0.0
2018-Jul-08 02:28N 39°34' E 002°38'0 0.0
2018-Jul-08 01:58N 39°34' E 002°38'0 0.0
2018-Jul-08 01:28N 39°34' E 002°38'0 0.0
2018-Jul-08 00:58N 39°34' E 002°38'0 0.0
2018-Jul-08 00:28N 39°34' E 002°38'0 0.0
2018-Jul-07 23:58N 39°34' E 002°38'0 0.0
2018-Jul-07 23:28N 39°34' E 002°38'0 0.0
2018-Jul-07 22:58N 39°34' E 002°38'0 0.0
2018-Jul-07 22:28N 39°34' E 002°38'0 0.0
2018-Jul-07 21:58N 39°34' E 002°38'0 0.0
2018-Jul-07 21:28N 39°34' E 002°38'0 0.0
2018-Jul-07 20:58N 39°34' E 002°38'0 0.0
2018-Jul-07 20:28N 39°34' E 002°38'0 0.0
2018-Jul-07 19:58N 39°34' E 002°38'0 0.0
2018-Jul-07 19:28N 39°34' E 002°38'0 0.0
2018-Jul-07 18:55N 39°34' E 002°38'0 0.0
2018-Jul-07 18:28N 39°34' E 002°38'0 0.0
2018-Jul-07 17:58N 39°34' E 002°38'0 0.0
2018-Jul-07 17:28N 39°34' E 002°38'0 0.0
2018-Jul-07 16:55N 39°34' E 002°38'0 0.0
2018-Jul-07 16:28N 39°34' E 002°38'0 0.0
2018-Jul-07 15:58N 39°34' E 002°38'0 0.0
2018-Jul-07 15:28N 39°34' E 002°38'0 0.0
2018-Jul-07 14:58N 39°34' E 002°38'0 0.0
2018-Jul-07 14:28N 39°34' E 002°38'0 0.0
2018-Jul-07 13:55N 39°34' E 002°38'0 0.0
2018-Jul-07 13:28N 39°34' E 002°38'0 0.0
2018-Jul-07 12:58N 39°34' E 002°38'0 0.0
2018-Jul-07 12:28N 39°34' E 002°38'0 0.0
2018-Jul-07 11:58N 39°34' E 002°38'0 0.0
2018-Jul-07 11:28N 39°34' E 002°38'0 0.0
2018-Jul-07 10:58N 39°34' E 002°38'0 0.0
2018-Jul-07 10:25N 39°34' E 002°38'0 0.0
2018-Jul-07 09:58N 39°34' E 002°38'0 0.0
2018-Jul-07 09:22N 39°34' E 002°38'0 0.0
2018-Jul-07 08:58N 39°34' E 002°38'0 0.0
2018-Jul-07 08:28N 39°34' E 002°38'0 0.0
2018-Jul-07 07:58N 39°34' E 002°38'0 0.0
2018-Jul-07 07:22N 39°34' E 002°38'0 0.0
2018-Jul-07 06:58N 39°34' E 002°38'0 0.0
2018-Jul-07 06:28N 39°34' E 002°38'0 0.0
2018-Jul-07 05:58N 39°34' E 002°38'  

Dump ship's entire track history